Time;durP1;ratioP1;P1;durP2;ratioP2;P2;SDS_P1;SDS_P2;PMS_P1;PMS_P2;Temp;Humidity;BMP_temperature;BMP_pressure;BME280_temperature;BME280_humidity;BME280_pressure;Samples;Min_cycle;Max_cycle;Signal;HPM_P1;HPM_P2
2021/10/02 00:45:49;;;;;;;23.75;14.95;;;256.60;2252.80;;;;;;5051761;28;20071;-65
2021/10/02 00:48:15;;;;;;;22.88;14.75;;;256.50;2252.80;;;;;;5051543;28;20053;-66
2021/10/02 00:50:40;;;;;;;25.83;14.50;;;256.50;2252.80;;;;;;5051230;28;20479;-66
2021/10/02 00:53:06;;;;;;;24.75;15.50;;;256.50;2252.80;;;;;;5034333;28;20104;-67
2021/10/02 00:55:32;;;;;;;22.15;14.38;;;256.40;2252.80;;;;;;5051082;28;20041;-66
2021/10/02 00:57:58;;;;;;;23.15;14.55;;;256.40;2252.80;;;;;;5051453;28;20029;-66
2021/10/02 01:00:25;;;;;;;22.70;14.45;;;256.40;2252.80;;;;;;5051382;28;20079;-66
2021/10/02 01:03:00;;;;;;;26.08;14.65;;;256.40;2252.80;;;;;;5051350;28;20041;-66
2021/10/02 01:05:44;;;;;;;;;;;256.30;2252.80;;;;;;5051762;28;20049;-65
2021/10/02 01:08:21;;;;;;;23.65;13.75;;;256.30;2252.80;;;;;;5051031;28;19917;-67
2021/10/02 01:11:18;;;;;;;21.70;14.38;;;256.30;2252.80;;;;;;5051103;28;20431;-65
2021/10/02 01:14:25;;;;;;;24.50;14.48;;;256.30;2252.80;;;;;;5037288;28;20055;-65
2021/10/02 01:16:57;;;;;;;27.15;14.23;;;256.30;2252.80;;;;;;5117757;28;20031;-65
2021/10/02 01:19:44;;;;;;;25.10;14.32;;;256.30;2252.80;;;;;;5116022;28;20055;-66
2021/10/02 01:22:32;;;;;;;24.85;14.32;;;256.30;2252.80;;;;;;5117815;28;20055;-66
2021/10/02 01:25:14;;;;;;;24.75;14.70;;;256.30;2252.80;;;;;;5117756;27;20020;-66
2021/10/02 01:28:02;;;;;;;28.75;15.35;;;256.20;2252.80;;;;;;5117616;28;20016;-67
2021/10/02 01:33:17;;;;;;;23.88;14.43;;;256.20;2252.80;;;;;;5117620;28;20051;-67
2021/10/02 01:35:56;;;;;;;24.77;14.48;;;256.20;2252.80;;;;;;5117589;28;20046;-65
2021/10/02 01:49:27;;;;;;;23.23;14.25;;;231.30;2252.80;;;;;;5117626;28;20398;-65
2021/10/02 01:51:56;;;;;;;23.00;13.95;;;231.30;2252.80;;;;;;5117297;28;20047;-65
2021/10/02 01:54:23;;;;;;;24.85;15.02;;;231.30;2252.80;;;;;;5117366;27;20026;-66
2021/10/02 01:56:50;;;;;;;25.98;14.27;;;231.30;2252.80;;;;;;5116319;28;20038;-65
2021/10/02 01:59:18;;;;;;;27.02;15.15;;;231.20;2252.80;;;;;;5117067;28;20024;-66
2021/10/02 02:01:47;;;;;;;21.80;14.32;;;231.20;2252.80;;;;;;5116849;28;20027;-65
2021/10/02 02:04:15;;;;;;;24.55;14.18;;;231.10;2252.80;;;;;;5117074;28;20099;-66
2021/10/02 02:06:43;;;;;;;23.85;14.55;;;231.10;2252.80;;;;;;5116374;28;20105;-66
2021/10/02 02:09:11;;;;;;;24.67;14.05;;;231.10;2252.80;;;;;;5116677;28;20040;-66
2021/10/02 02:11:39;;;;;;;23.42;15.07;;;231.10;2252.80;;;;;;5116688;28;20023;-67
2021/10/02 02:14:06;;;;;;;26.50;14.75;;;231.00;2252.80;;;;;;5116604;28;20024;-66
2021/10/02 02:16:32;;;;;;;26.10;14.68;;;231.00;2252.80;;;;;;5116884;28;20046;-66
2021/10/02 02:18:59;;;;;;;26.92;14.50;;;230.90;2252.80;;;;;;5116840;28;20073;-65
2021/10/02 02:21:26;;;;;;;21.38;15.00;;;231.00;2252.80;;;;;;5116280;28;20020;-66
2021/10/02 02:23:52;;;;;;;27.23;14.57;;;230.90;2252.80;;;;;;5116619;28;20088;-65
2021/10/02 02:26:18;;;;;;;25.15;15.05;;;230.90;2252.80;;;;;;5115276;28;20504;-65
2021/10/02 02:28:44;;;;;;;22.50;15.35;;;230.90;2252.80;;;;;;5116164;28;20034;-65
2021/10/02 02:31:10;;;;;;;23.98;14.60;;;230.90;2252.80;;;;;;5116240;28;20107;-64
2021/10/02 02:33:38;;;;;;;24.67;15.52;;;230.90;2252.80;;;;;;5116227;28;20019;-65
2021/10/02 02:36:05;;;;;;;27.63;14.82;;;230.90;2252.80;;;;;;5116024;28;20401;-63
2021/10/02 02:38:31;;;;;;;23.08;14.85;;;230.90;2252.80;;;;;;5112178;28;20418;-65
2021/10/02 02:40:57;;;;;;;24.77;14.52;;;230.90;2252.80;;;;;;5114556;28;20108;-66
2021/10/02 02:43:28;;;;;;;24.95;14.82;;;231.00;2252.80;;;;;;5114695;28;20487;-65
2021/10/02 02:46:01;;;;;;;25.20;14.55;;;230.90;2252.80;;;;;;5112900;28;20102;-61
2021/10/02 02:48:37;;;;;;;25.88;15.20;;;230.90;2252.80;;;;;;5114863;28;20380;-64
2021/10/02 02:51:07;;;;;;;25.17;14.32;;;230.80;2252.80;;;;;;5114557;28;20041;-66
2021/10/02 02:54:01;;;;;;;25.35;14.43;;;230.80;2252.80;;;;;;5107747;28;20480;-66
2021/10/02 02:56:42;;;;;;;23.52;14.45;;;230.80;2252.80;;;;;;5114230;28;20463;-64
2021/10/02 02:59:17;;;;;;;27.85;15.07;;;230.80;2252.80;;;;;;5114410;28;20024;-65
2021/10/02 03:01:43;;;;;;;24.75;14.80;;;230.80;2252.80;;;;;;5114573;28;20038;-66
2021/10/02 03:04:15;;;;;;;23.70;14.52;;;230.80;2252.80;;;;;;5112758;28;20024;-62
2021/10/02 03:06:48;;;;;;;21.02;14.38;;;230.80;2252.80;;;;;;5114378;28;20055;-63
2021/10/02 03:09:15;;;;;;;25.17;15.38;;;230.80;2252.80;;;;;;5111896;28;20032;-65
2021/10/02 03:11:45;;;;;;;28.20;15.00;;;230.80;2252.80;;;;;;5114209;28;20023;-64
2021/10/02 03:14:12;;;;;;;26.63;15.88;;;230.80;2252.80;;;;;;5111233;28;20034;-65
2021/10/02 03:16:38;;;;;;;26.08;14.98;;;230.80;2252.80;;;;;;5114374;28;20019;-65
2021/10/02 03:19:06;;;;;;;20.75;14.18;;;230.80;2252.80;;;;;;5113890;28;20059;-66
2021/10/02 03:21:34;;;;;;;24.70;14.77;;;230.80;2252.80;;;;;;5111575;28;20103;-64
2021/10/02 03:24:02;;;;;;;25.63;15.00;;;230.80;2252.80;;;;;;5114161;28;20393;-65
2021/10/02 03:26:30;;;;;;;24.63;14.30;;;230.80;2252.80;;;;;;5113827;28;20102;-66
2021/10/02 03:28:56;;;;;;;23.63;15.00;;;230.80;2252.80;;;;;;5113793;28;20016;-63
2021/10/02 03:31:23;;;;;;;24.13;14.68;;;230.80;2252.80;;;;;;5113779;28;20020;-61
2021/10/02 03:33:50;;;;;;;23.50;15.13;;;230.80;2252.80;;;;;;5113506;28;20097;-64
2021/10/02 03:36:16;;;;;;;25.65;14.52;;;230.70;2252.80;;;;;;5113581;28;20055;-64
2021/10/02 03:38:42;;;;;;;23.67;15.07;;;230.70;2252.80;;;;;;5112267;28;20069;-66
2021/10/02 03:41:09;;;;;;;27.90;15.88;;;230.70;2252.80;;;;;;5113586;28;20465;-63
2021/10/02 03:43:36;;;;;;;23.00;14.93;;;230.70;2252.80;;;;;;5113873;28;20024;-62
2021/10/02 03:46:03;;;;;;;21.63;14.55;;;230.70;2252.80;;;;;;5113526;28;20560;-61
2021/10/02 03:48:30;;;;;;;23.95;15.35;;;230.70;2252.80;;;;;;5113479;28;20102;-65
2021/10/02 03:50:58;;;;;;;27.23;15.30;;;230.70;2252.80;;;;;;5113431;28;20034;-65
2021/10/02 03:53:27;;;;;;;27.17;14.75;;;230.70;2252.80;;;;;;5113757;28;20023;-64
2021/10/02 03:55:55;;;;;;;28.55;15.75;;;230.70;2252.80;;;;;;5110744;28;20030;-66
2021/10/02 03:58:20;;;;;;;27.05;15.35;;;230.70;2252.80;;;;;;5113425;28;20503;-64
2021/10/02 04:00:46;;;;;;;26.08;15.07;;;230.70;2252.80;;;;;;5113200;28;20031;-65
2021/10/02 04:03:12;;;;;;;24.88;15.68;;;230.70;2252.80;;;;;;5113315;28;20069;-65
2021/10/02 04:05:38;;;;;;;30.85;15.90;;;230.70;2252.80;;;;;;5113123;28;20030;-65
2021/10/02 04:08:04;;;;;;;24.05;15.35;;;230.60;2252.80;;;;;;5113064;28;20100;-65
2021/10/02 04:10:29;;;;;;;24.73;15.10;;;230.60;2252.80;;;;;;5113075;28;20035;-66
2021/10/02 04:12:55;;;;;;;24.67;15.27;;;230.60;2252.80;;;;;;5113050;28;20545;-65
2021/10/02 04:15:21;;;;;;;27.20;15.68;;;230.60;2252.80;;;;;;5113311;28;20024;-62
2021/10/02 04:17:46;;;;;;;24.63;15.32;;;230.60;2252.80;;;;;;5112912;28;20052;-64
2021/10/02 04:20:13;;;;;;;26.10;15.32;;;230.60;2252.80;;;;;;5112544;28;20507;-65
2021/10/02 04:22:38;;;;;;;25.02;15.35;;;230.60;2252.80;;;;;;5113129;28;20023;-66
2021/10/02 04:25:05;;;;;;;23.05;14.48;;;230.60;2252.80;;;;;;5112949;28;20540;-65
2021/10/02 04:27:30;;;;;;;29.70;15.07;;;230.60;2252.80;;;;;;5112901;28;20115;-65
2021/10/02 04:29:56;;;;;;;24.98;15.60;;;230.60;2252.80;;;;;;5113112;28;20110;-62
2021/10/02 04:32:22;;;;;;;25.45;14.50;;;230.60;2252.80;;;;;;5112631;28;20038;-61
2021/10/02 04:34:48;;;;;;;24.52;15.10;;;230.60;2252.80;;;;;;5112583;28;20031;-64
2021/10/02 04:37:13;;;;;;;22.92;15.02;;;230.60;2252.80;;;;;;5112970;28;20027;-66
2021/10/02 04:39:39;;;;;;;25.17;14.98;;;230.60;2252.80;;;;;;5112307;28;20030;-65
2021/10/02 04:42:05;;;;;;;24.58;16.00;;;230.60;2252.80;;;;;;5112052;28;20403;-62
2021/10/02 04:44:32;;;;;;;25.30;15.15;;;230.70;2252.80;;;;;;5112480;28;20134;-64
2021/10/02 04:46:58;;;;;;;22.73;15.35;;;230.70;2252.80;;;;;;5112642;28;20077;-64
2021/10/02 04:49:23;;;;;;;23.73;15.18;;;230.70;2252.80;;;;;;5114082;27;20469;-65
2021/10/02 04:51:49;;;;;;;24.80;15.18;;;230.70;2252.80;;;;;;5116783;28;20065;-65
2021/10/02 04:54:15;;;;;;;25.00;14.57;;;230.70;2252.80;;;;;;5116936;28;20015;-65
2021/10/02 04:56:41;;;;;;;23.77;14.93;;;230.80;2252.80;;;;;;5116663;28;20076;-65
2021/10/02 04:59:07;;;;;;;24.83;15.35;;;230.80;2252.80;;;;;;5117138;28;20019;-65
2021/10/02 05:01:33;;;;;;;23.60;14.93;;;230.80;2252.80;;;;;;5116631;28;20023;-64
2021/10/02 05:04:01;;;;;;;25.77;15.13;;;230.80;2252.80;;;;;;5116705;28;20016;-66
2021/10/02 05:06:28;;;;;;;22.80;14.57;;;230.80;2252.80;;;;;;5115205;28;20469;-64
2021/10/02 05:08:54;;;;;;;26.17;14.50;;;230.80;2252.80;;;;;;5116408;28;20118;-66
2021/10/02 05:11:20;;;;;;;23.38;14.02;;;230.80;2252.80;;;;;;5116855;28;20064;-66
2021/10/02 05:13:45;;;;;;;23.25;15.00;;;230.90;2252.80;;;;;;5116557;27;20102;-65
2021/10/02 05:16:11;;;;;;;25.55;14.40;;;230.90;2252.80;;;;;;5115638;28;20038;-65
2021/10/02 05:18:37;;;;;;;19.77;13.88;;;230.90;2252.80;;;;;;5116762;28;20018;-63
2021/10/02 05:21:03;;;;;;;22.42;14.18;;;231.00;2252.80;;;;;;5116020;28;20403;-64
2021/10/02 05:23:29;;;;;;;24.98;14.13;;;231.00;2252.80;;;;;;5116397;28;20464;-65
2021/10/02 05:25:55;;;;;;;25.88;14.43;;;231.10;2252.80;;;;;;5115915;28;20028;-65
2021/10/02 05:28:22;;;;;;;22.58;13.52;;;231.20;2252.80;;;;;;5116533;28;20406;-64
2021/10/02 05:30:49;;;;;;;23.52;14.82;;;231.20;2252.80;;;;;;5116475;28;20123;-66
2021/10/02 05:33:14;;;;;;;23.40;13.75;;;231.30;2252.80;;;;;;5116032;28;20524;-65
2021/10/02 05:35:40;;;;;;;26.25;13.95;;;256.00;2252.80;;;;;;5116056;28;20111;-67
2021/10/02 05:38:06;;;;;;;21.38;13.65;;;256.20;2252.80;;;;;;5115768;28;20412;-65
2021/10/02 05:40:32;;;;;;;21.02;14.50;;;256.30;2252.80;;;;;;5116002;28;20047;-66
2021/10/02 05:42:59;;;;;;;18.50;12.82;;;256.50;2252.80;;;;;;5115941;28;20016;-66
2021/10/02 05:45:25;;;;;;;22.52;12.82;;;256.50;2252.80;;;;;;5115899;28;20055;-65
2021/10/02 05:47:51;;;;;;;22.50;13.20;;;256.60;2252.80;;;;;;5115836;28;20048;-66
2021/10/02 05:50:17;;;;;;;20.80;13.45;;;256.80;2252.80;;;;;;5115911;28;20024;-66
2021/10/02 05:52:42;;;;;;;20.42;12.95;;;256.90;2252.80;;;;;;5115408;28;20020;-65
2021/10/02 05:55:10;;;;;;;19.85;12.50;;;281.70;2278.40;;;;;;5116006;28;20015;-68
2021/10/02 05:57:36;;;;;;;22.27;12.38;;;281.80;2278.40;;;;;;5114318;28;20019;-65
2021/10/02 06:00:07;;;;;;;18.00;12.05;;;282.00;2278.40;;;;;;5114017;28;20046;-65
2021/10/02 06:02:33;;;;;;;19.45;11.82;;;282.20;2278.40;;;;;;5115615;28;20508;-66
2021/10/02 06:04:59;;;;;;;21.58;11.52;;;282.40;2278.40;;;;;;5114084;28;20072;-68
2021/10/02 06:07:25;;;;;;;16.77;11.80;;;307.20;2304.00;;;;;;5115303;28;20044;-66
2021/10/02 06:09:51;;;;;;;21.67;11.43;;;307.40;2304.00;;;;;;5115531;28;20063;-66
2021/10/02 06:12:18;;;;;;;17.30;10.70;;;307.70;2304.00;;;;;;5114993;28;20035;-67
2021/10/02 06:14:44;;;;;;;16.23;10.63;;;307.80;2304.00;;;;;;5115540;28;20043;-67
2021/10/02 06:17:09;;;;;;;15.07;10.00;;;332.90;2329.60;;;;;;5115288;28;20019;-65
2021/10/02 06:19:35;;;;;;;16.38;10.18;;;333.70;2329.60;;;;;;5112193;28;20028;-63
2021/10/02 06:22:01;;;;;;;;;;;359.30;2329.60;;;;;;5115991;28;20027;-67
2021/10/02 06:24:26;;;;;;;15.02;9.02;;;410.20;2355.20;;;;;;5114641;28;20026;-66
2021/10/02 06:26:52;;;;;;;13.07;8.77;;;460.80;2252.80;;;;;;5114718;28;20396;-67
2021/10/02 06:29:18;;;;;;;15.10;8.88;;;486.50;2073.60;;;;;;5115202;28;20030;-68
2021/10/02 06:31:44;;;;;;;11.15;8.40;;;512.60;1894.40;;;;;;5115020;28;20477;-66
2021/10/02 06:34:10;;;;;;;15.43;8.80;;;538.50;1766.40;;;;;;5114847;28;20358;-68
2021/10/02 06:36:38;;;;;;;12.00;8.90;;;614.40;1510.40;;;;;;5114814;28;20070;-69
2021/10/02 06:39:03;;;;;;;13.00;8.32;;;589.70;1689.60;;;;;;5114794;28;20048;-68
2021/10/02 06:41:29;;;;;;;14.40;7.63;;;615.20;1382.40;;;;;;5114362;28;20051;-69
2021/10/02 06:43:55;;;;;;;12.05;7.80;;;640.60;1254.40;;;;;;5114998;28;20080;-68
2021/10/02 06:46:21;;;;;;;8.38;7.38;;;666.00;1228.80;;;;;;5114609;28;20024;-66
2021/10/02 06:48:47;;;;;;;11.43;7.32;;;691.60;1126.40;;;;;;5113149;28;20536;-67
2021/10/02 06:51:12;;;;;;;9.63;6.95;;;717.10;1075.20;;;;;;5114423;28;20427;-67
2021/10/02 06:53:38;;;;;;;8.05;6.55;;;691.40;1075.20;;;;;;5114706;28;20024;-67
2021/10/02 06:56:04;;;;;;;10.68;7.07;;;666.40;1100.80;;;;;;5114522;28;20023;-68
2021/10/02 06:58:30;;;;;;;;;;;666.10;1100.80;;;;;;5115083;28;20358;-68
2021/10/02 07:00:56;;;;;;;9.10;6.82;;;615.20;1152.00;;;;;;5113478;28;19942;-66
2021/10/02 07:03:22;;;;;;;;;;;614.80;1203.20;;;;;;5114905;28;20036;-68
2021/10/02 07:05:47;;;;;;;;;;;588.80;1305.60;;;;;;5114688;28;19912;-65
2021/10/02 07:08:14;;;;;;;11.90;6.53;;;563.30;1408.00;;;;;;5112607;28;19919;-67
2021/10/02 07:10:40;;;;;;;10.85;7.05;;;538.00;1408.00;;;;;;5113151;28;20039;-67
2021/10/02 07:13:06;;;;;;;;;;;512.70;1408.00;;;;;;5114022;27;20015;-68
2021/10/02 07:15:32;;;;;;;11.45;7.30;;;512.30;1484.80;;;;;;5114568;28;20459;-68
2021/10/02 07:17:57;;;;;;;16.17;7.47;;;512.10;1536.00;;;;;;5114024;28;20404;-67
2021/10/02 07:20:25;;;;;;;11.97;7.33;;;512.30;1536.00;;;;;;5114210;28;20016;-68
2021/10/02 07:22:51;;;;;;;12.00;7.47;;;487.30;1561.60;;;;;;5114630;28;20035;-68
2021/10/02 07:25:17;;;;;;;14.95;7.28;;;487.00;1587.20;;;;;;5115256;28;20019;-66
2021/10/02 07:27:43;;;;;;;15.02;7.40;;;486.80;1612.80;;;;;;5115656;28;20050;-65
2021/10/02 07:30:11;;;;;;;10.55;7.20;;;486.50;1612.80;;;;;;5115390;28;20077;-68
2021/10/02 07:32:38;;;;;;;10.73;7.18;;;461.70;1638.40;;;;;;5115105;28;20031;-62
2021/10/02 07:35:06;;;;;;;10.10;6.25;;;486.40;1638.40;;;;;;5114272;28;20016;-65
2021/10/02 07:37:32;;;;;;;12.00;6.80;;;461.40;1638.40;;;;;;5113784;28;20028;-66
2021/10/02 07:39:58;;;;;;;12.82;6.50;;;461.50;1638.40;;;;;;5115000;28;20657;-67
2021/10/02 07:42:25;;;;;;;10.50;6.55;;;486.70;1561.60;;;;;;5111403;28;20114;-66
2021/10/02 07:44:57;;;;;;;13.10;6.35;;;537.60;1459.20;;;;;;5114491;28;20027;-67
2021/10/02 07:47:24;;;;;;;9.80;6.22;;;563.60;1382.40;;;;;;5113863;28;20047;-69
2021/10/02 07:49:50;;;;;;;9.02;5.47;;;614.40;1280.00;;;;;;5114114;28;20064;-69
2021/10/02 07:52:17;;;;;;;8.80;6.10;;;640.70;1152.00;;;;;;5114014;28;20393;-69
2021/10/02 07:54:45;;;;;;;7.97;5.72;;;665.80;1100.80;;;;;;5113770;28;20099;-69
2021/10/02 07:57:11;;;;;;;10.18;5.88;;;691.20;1075.20;;;;;;5114205;28;20030;-67
2021/10/02 07:59:37;;;;;;;7.40;5.30;;;717.00;1024.00;;;;;;5113072;28;20068;-68
2021/10/02 08:02:07;;;;;;;9.77;5.38;;;717.30;947.20;;;;;;5113430;28;20024;-67
2021/10/02 08:04:33;;;;;;;7.10;5.05;;;742.70;921.60;;;;;;5110865;28;20440;-66
2021/10/02 08:06:58;;;;;;;9.02;5.57;;;768.00;870.40;;;;;;5113946;28;20122;-67
2021/10/02 08:09:26;;;;;;;9.50;5.57;;;742.90;896.00;;;;;;5113391;28;20131;-64
2021/10/02 08:11:51;;;;;;;10.45;5.50;;;768.50;844.80;;;;;;5112821;28;20445;-64
2021/10/02 08:14:18;;;;;;;10.75;5.45;;;768.70;793.60;;;;;;5113190;28;20098;-66
2021/10/02 08:16:46;;;;;;;11.20;5.30;;;768.80;793.60;;;;;;5113235;28;20034;-66
2021/10/02 08:19:15;;;;;;;8.10;5.18;;;768.50;819.20;;;;;;5112910;28;20023;-66
2021/10/02 08:21:42;;;;;;;9.10;5.30;;;793.60;844.80;;;;;;5112777;28;20035;-68
2021/10/02 08:24:08;;;;;;;9.52;5.25;;;768.90;819.20;;;;;;5109471;28;20020;-68
2021/10/02 08:26:35;;;;;;;13.30;5.15;;;819.30;819.20;;;;;;5112815;28;20065;-66
2021/10/02 08:29:02;;;;;;;10.55;4.88;;;820.00;768.00;;;;;;5112676;28;20031;-68
2021/10/02 08:31:29;;;;;;;9.68;5.20;;;820.00;768.00;;;;;;5110290;28;20389;-66
2021/10/02 08:33:55;;;;;;;9.20;5.85;;;819.80;768.00;;;;;;5113961;28;20023;-66
2021/10/02 08:36:21;;;;;;;10.68;5.10;;;845.20;742.40;;;;;;5114279;28;20039;-67
2021/10/02 08:38:47;;;;;;;8.63;5.15;;;845.70;742.40;;;;;;5114478;28;20023;-68
2021/10/02 08:41:16;;;;;;;7.07;5.05;;;845.70;716.80;;;;;;5114427;28;20024;-64
2021/10/02 08:43:47;;;;;;;11.70;8.80;;;845.30;742.40;;;;;;5114142;28;20019;-64
2021/10/02 08:46:14;;;;;;;9.65;6.40;;;870.40;716.80;;;;;;5113480;28;20038;-64
2021/10/02 08:48:42;;;;;;;8.27;5.68;;;845.10;742.40;;;;;;5114024;28;20108;-65
2021/10/02 08:51:09;;;;;;;8.85;5.15;;;870.50;716.80;;;;;;5114052;28;20040;-68
2021/10/02 08:53:35;;;;;;;7.82;5.47;;;871.00;691.20;;;;;;5104261;28;20016;-69
2021/10/02 08:56:03;;;;;;;10.52;5.25;;;870.90;691.20;;;;;;5091260;28;20043;-69
2021/10/02 08:58:30;;;;;;;9.13;5.03;;;896.70;614.40;;;;;;5090525;28;20107;-70
2021/10/02 09:00:57;;;;;;;10.20;5.07;;;896.40;640.00;;;;;;5095878;28;20123;-69
2021/10/02 09:03:23;;;;;;;9.98;4.70;;;871.00;665.60;;;;;;5109954;28;20049;-68
2021/10/02 09:05:49;;;;;;;7.88;5.00;;;896.10;640.00;;;;;;5109317;28;20043;-68
2021/10/02 09:08:15;;;;;;;7.88;4.43;;;896.80;640.00;;;;;;5109476;28;20027;-71
2021/10/02 09:10:41;;;;;;;7.38;4.50;;;921.90;640.00;;;;;;5111018;28;20043;-68
2021/10/02 09:13:07;;;;;;;8.15;4.03;;;921.90;640.00;;;;;;5111498;28;20474;-69
2021/10/02 09:15:34;;;;;;;8.85;4.07;;;921.90;588.80;;;;;;5110683;28;20063;-69
2021/10/02 09:18:00;;;;;;;7.90;3.67;;;921.80;588.80;;;;;;5112217;28;20055;-69
2021/10/02 09:20:26;;;;;;;7.18;4.03;;;896.20;588.80;;;;;;5111403;28;20036;-68
2021/10/02 09:23:00;;;;;;;8.70;3.95;;;896.00;588.80;;;;;;5111659;28;20016;-69
2021/10/02 09:25:28;;;;;;;7.32;4.32;;;871.00;640.00;;;;;;5110407;28;20484;-70
2021/10/02 09:28:11;;;;;;;6.47;3.83;;;871.30;614.40;;;;;;5110461;28;20112;-71
2021/10/02 09:30:40;;;;;;;10.10;4.10;;;921.60;588.80;;;;;;5110901;28;20040;-70
2021/10/02 09:33:20;;;;;;;8.48;4.15;;;947.30;563.20;;;;;;5111077;28;20023;-70
2021/10/02 09:35:47;;;;;;;11.80;3.80;;;947.90;512.00;;;;;;5112933;28;20035;-72
2021/10/02 09:38:18;;;;;;;5.80;3.70;;;921.90;563.20;;;;;;5113940;28;20027;-70
2021/10/02 09:40:52;;;;;;;5.03;3.72;;;921.90;563.20;;;;;;5112407;28;20031;-70
2021/10/02 09:43:19;;;;;;;7.93;3.80;;;922.40;537.60;;;;;;5115473;28;20039;-70
2021/10/02 09:45:48;;;;;;;6.68;3.90;;;947.90;537.60;;;;;;5114620;28;20100;-70
2021/10/02 09:48:16;;;;;;;7.28;3.92;;;973.30;512.00;;;;;;5115420;28;20024;-69
2021/10/02 09:50:45;;;;;;;9.10;4.20;;;973.20;512.00;;;;;;5114166;28;20043;-69
2021/10/02 09:53:17;;;;;;;9.00;3.90;;;998.70;512.00;;;;;;5115395;28;20449;-70
2021/10/02 09:55:51;;;;;;;6.45;3.88;;;973.20;512.00;;;;;;5113481;28;20027;-69
2021/10/02 09:58:29;;;;;;;4.82;3.80;;;973.50;486.40;;;;;;5115237;28;20461;-72
2021/10/02 10:00:55;;;;;;;8.00;4.10;;;948.00;512.00;;;;;;5113423;28;20063;-69
2021/10/02 10:03:22;;;;;;;7.55;4.57;;;947.40;512.00;;;;;;5093877;28;20036;-70
2021/10/02 10:05:51;;;;;;;6.65;4.18;;;973.10;512.00;;;;;;5093854;28;20115;-67
2021/10/02 10:08:28;;;;;;;8.50;4.03;;;973.60;486.40;;;;;;5094663;28;20048;-70
2021/10/02 10:11:09;;;;;;;6.68;3.92;;;947.20;537.60;;;;;;5093903;28;20801;-70
2021/10/02 10:13:35;;;;;;;5.88;4.32;;;947.60;537.60;;;;;;5093830;28;20465;-69
2021/10/02 10:16:05;;;;;;;9.68;4.50;;;973.10;512.00;;;;;;5094309;28;20063;-70
2021/10/02 10:18:34;;;;;;;8.55;4.50;;;973.10;512.00;;;;;;5094135;28;20028;-70
2021/10/02 10:21:06;;;;;;;10.13;4.85;;;973.50;486.40;;;;;;5094344;28;20115;-70
2021/10/02 10:23:43;;;;;;;5.82;4.07;;;973.50;512.00;;;;;;5091946;28;20020;-69
2021/10/02 10:26:12;;;;;;;9.88;4.30;;;973.70;486.40;;;;;;5093445;28;20400;-73
2021/10/02 10:28:44;;;;;;;7.47;4.30;;;998.60;512.00;;;;;;5093388;28;20480;-73
2021/10/02 10:31:13;;;;;;;7.55;4.25;;;973.70;486.40;;;;;;5095970;28;20044;-76
2021/10/02 10:33:41;;;;;;;9.23;4.65;;;973.50;486.40;;;;;;5114028;28;20055;-74
2021/10/02 10:36:07;;;;;;;7.53;4.50;;;947.90;486.40;;;;;;5113600;28;20028;-71
2021/10/02 10:38:35;;;;;;;9.88;5.78;;;999.20;486.40;;;;;;5113248;28;20100;-73
2021/10/02 10:41:04;;;;;;;10.43;5.65;;;998.90;486.40;;;;;;5113749;28;20034;-74
2021/10/02 10:43:34;;;;;;;6.15;4.22;;;998.50;512.00;;;;;;5113840;28;20022;-72
2021/10/02 10:46:08;;;;;;;8.85;5.57;;;973.60;486.40;;;;;;5113820;27;20035;-71
2021/10/02 10:48:35;;;;;;;10.05;5.10;;;1024.40;460.80;;;;;;5113042;28;20043;-70
2021/10/02 10:51:06;;;;;;;7.53;4.60;;;1075.50;435.20;;;;;;5114207;27;20066;-71
2021/10/02 10:53:50;;;;;;;8.15;4.43;;;1049.60;435.20;;;;;;5113196;28;20393;-73
2021/10/02 10:56:35;;;;;;;6.68;4.40;;;1075.70;435.20;;;;;;5112130;28;20472;-71
2021/10/02 10:59:01;;;;;;;6.85;3.95;;;1100.80;435.20;;;;;;5114392;28;20040;-72
2021/10/02 11:01:38;;;;;;;9.32;4.40;;;1050.20;435.20;;;;;;5111594;28;20034;-72
2021/10/02 11:04:05;;;;;;;9.80;4.93;;;1075.30;409.60;;;;;;5113924;28;20464;-72
2021/10/02 11:06:56;;;;;;;9.77;4.82;;;1050.00;435.20;;;;;;5112729;28;20031;-73
2021/10/02 11:09:42;;;;;;;7.00;5.13;;;1050.40;435.20;;;;;;5112619;28;20479;-72
2021/10/02 11:12:13;;;;;;;12.80;6.07;;;1075.30;409.60;;;;;;5112139;28;20111;-72
2021/10/02 11:14:50;;;;;;;8.65;4.63;;;1075.80;409.60;;;;;;5113107;28;20080;-71
2021/10/02 11:17:35;;;;;;;7.47;4.47;;;1050.50;435.20;;;;;;5113314;28;20023;-71
2021/10/02 11:20:29;;;;;;;7.93;5.15;;;1024.30;435.20;;;;;;5112746;28;20115;-72
2021/10/02 11:23:36;;;;;;;6.85;4.20;;;1024.60;435.20;;;;;;5049784;28;20490;-70
2021/10/02 11:26:48;;;;;;;6.53;4.40;;;1076.10;384.00;;;;;;5049621;28;20033;-71
2021/10/02 11:29:26;;;;;;;8.45;5.25;;;1075.70;409.60;;;;;;5047205;28;20033;-69
2021/10/02 11:32:19;;;;;;;9.07;4.85;;;1075.30;409.60;;;;;;5033159;28;20060;-70
2021/10/02 11:35:12;;;;;;;7.07;4.60;;;1050.40;409.60;;;;;;5049021;28;20084;-71
2021/10/02 11:37:41;;;;;;;7.05;4.38;;;1050.50;435.20;;;;;;5049580;28;20072;-70
2021/10/02 11:40:32;;;;;;;8.38;4.90;;;1075.50;409.60;;;;;;5049418;28;20068;-72
2021/10/02 11:43:15;;;;;;;7.95;4.97;;;1024.40;435.20;;;;;;5050227;28;20072;-71
2021/10/02 11:45:44;;;;;;;10.25;5.38;;;1024.20;435.20;;;;;;5049102;28;20048;-71
2021/10/02 11:48:36;;;;;;;6.70;5.30;;;1024.20;460.80;;;;;;5050050;28;20044;-71
2021/10/02 11:51:21;;;;;;;7.03;5.30;;;1075.20;409.60;;;;;;5033126;28;20037;-71
2021/10/02 11:53:54;;;;;;;9.43;5.28;;;1050.00;435.20;;;;;;5048981;28;20021;-71
2021/10/02 11:56:24;;;;;;;8.15;5.18;;;998.90;460.80;;;;;;5049145;28;20037;-68
2021/10/02 11:58:53;;;;;;;10.27;5.50;;;999.10;460.80;;;;;;5051331;28;20059;-66
2021/10/02 12:01:30;;;;;;;10.10;5.20;;;998.70;460.80;;;;;;5094160;28;20059;-67
2021/10/02 12:04:10;;;;;;;7.20;5.03;;;1050.20;435.20;;;;;;5110839;28;20401;-67
2021/10/02 12:06:44;;;;;;;6.95;5.30;;;1024.90;435.20;;;;;;5111236;28;20047;-70
2021/10/02 12:09:16;;;;;;;7.88;4.95;;;1050.40;409.60;;;;;;5105961;28;20565;-69
2021/10/02 12:11:50;;;;;;;8.18;4.82;;;1075.60;409.60;;;;;;5110980;28;20040;-68
2021/10/02 12:14:21;;;;;;;7.75;5.47;;;1101.60;384.00;;;;;;5112157;28;20094;-68
2021/10/02 12:16:56;;;;;;;10.45;5.20;;;1100.90;384.00;;;;;;5111229;28;20092;-67
2021/10/02 12:19:22;;;;;;;7.65;5.20;;;1100.80;384.00;;;;;;5111760;28;20051;-70
2021/10/02 12:21:56;;;;;;;10.57;5.43;;;1049.60;435.20;;;;;;5111248;28;20028;-69
2021/10/02 12:24:26;;;;;;;7.28;5.50;;;1024.00;435.20;;;;;;5112059;28;20016;-69
2021/10/02 12:26:59;;;;;;;7.47;5.03;;;1049.60;435.20;;;;;;5111986;28;20040;-69
2021/10/02 12:29:33;;;;;;;8.55;5.82;;;1049.60;435.20;;;;;;5112138;28;20027;-69
2021/10/02 12:32:10;;;;;;;8.77;5.50;;;1049.80;435.20;;;;;;5112194;28;20036;-68
2021/10/02 12:34:38;;;;;;;8.07;5.20;;;1075.60;384.00;;;;;;5109910;28;20180;-68
2021/10/02 12:37:19;;;;;;;6.82;4.82;;;1075.80;384.00;;;;;;5111679;28;20062;-68
2021/10/02 12:39:54;;;;;;;8.60;4.40;;;1100.80;409.60;;;;;;5110841;28;20059;-68
2021/10/02 12:42:35;;;;;;;6.68;4.90;;;1076.00;358.40;;;;;;5112202;28;20047;-70
2021/10/02 12:45:04;;;;;;;5.70;4.70;;;1050.50;384.00;;;;;;5112137;28;20055;-70
2021/10/02 12:47:30;;;;;;;9.40;5.43;;;999.20;435.20;;;;;;5111927;28;20031;-69
2021/10/02 12:50:03;;;;;;;8.38;4.85;;;999.30;435.20;;;;;;5113852;28;20468;-70
2021/10/02 12:52:30;;;;;;;9.60;5.03;;;1024.80;409.60;;;;;;5113893;28;20016;-69
2021/10/02 12:54:57;;;;;;;7.07;5.10;;;1050.50;384.00;;;;;;5113841;28;20461;-68
2021/10/02 12:57:26;;;;;;;8.68;4.88;;;1050.50;384.00;;;;;;5112566;28;20027;-68
2021/10/02 13:00:05;;;;;;;11.13;5.22;;;1024.30;435.20;;;;;;5112819;28;20399;-69
2021/10/02 13:02:32;;;;;;;8.57;4.60;;;998.70;460.80;;;;;;5113828;28;20178;-69
2021/10/02 13:04:59;;;;;;;6.55;5.78;;;947.80;486.40;;;;;;5106826;28;20024;-68
2021/10/02 13:07:33;;;;;;;8.05;4.65;;;922.00;512.00;;;;;;5091672;28;20115;-68
2021/10/02 13:10:01;;;;;;;9.57;5.22;;;870.80;563.20;;;;;;5092665;28;20036;-70
2021/10/02 13:12:30;;;;;;;16.42;4.75;;;845.40;614.40;;;;;;5095070;28;20024;-69
2021/10/02 13:14:56;;;;;;;10.70;4.78;;;820.00;640.00;;;;;;5095116;28;20048;-69
2021/10/02 13:17:22;;;;;;;8.25;5.25;;;819.50;665.60;;;;;;5114908;28;20019;-68
2021/10/02 13:19:48;;;;;;;7.78;5.25;;;794.20;691.20;;;;;;5104321;28;20103;-69
2021/10/02 13:22:18;;;;;;;6.30;4.88;;;743.20;716.80;;;;;;5095784;28;20362;-68